Phoenix, Arizona
Traffic Map
Current Weather Conditions
Phoenix, Arizona
Few Clouds
Few Clouds
29°
Feels Like: 29°
Wind Chill: 29° Ceiling: Unl
Heat Index: 29° Visibility: 10mi
Dew Point: 10° Wind: 7mph
Humidity: 31% Direction: 130° (SE)
Pressure: 30.03in Gusts: 0mph
Raw Report DataKPHX 231751Z 13006KT 10SM FEW250 29/10 A3003 RMK AO2 SLP153 T02890100 10294 20194 50005
Traffic Incident Summary
Active as of:
Severity:
Category:
InformationThere was an issue retrieving the traffic information for this location. Please try a different location or try again shortly.
Advertisements
Track Severe Weather on mobile